Felipe Yofre, Argentina
Current Conditions -  °F | °C
As of 6:00 AM on Saturday 25 Oct 2014 (Local Time) from SARL Reporting Station
Clear Clear  
Wind Chill: 66°   Ceiling: Unl
Heat Index: 66°   Visibility: 6mi
Dew Point: 61°   Wind: 12mph
Humidity: 83%   Direction: 90°E
Pressure: 29.88"   Gusts: NA
Location:  29.1°S, 58.33°W
Report Text: SARL 250900Z 09010KT CAVOK 19/16 Q1012
Loading
Personal Weather Stations






























Interactive Weather Map
Tropical Storm Tracking
New forecast layout! Learn more

10-Day Weather Forecast

Advertisements
Track Severe Weather on mobile